Mc Grath Airport
PAMC : now visible

Airfield :











YOU CAN JOIN US ON...

 
LOGIN :

Register | Disclaimer

   EN    FR    IT 

 









Legend :    VFR   Marginal VFR   IFR   Intensive IFR   Very Intensive IFR
Visi :
Ceiling :
>= 8 km
>= 3000ft
5 to 8 km
1000 to 3000 ft
1500m to 5 km
500 to 1000 ft
800 to 1500m
200 to 500 ft
< 800m
< 200 ft
Symbols :   Thunderstorms  Fog  Heavy snow  Heavy precipitations  Wind > 20 kt






- Airport Elevation : 341 ft
- IATA code : MCG


PAMC - Mc Grath

CURRENT METAR :
  • 240237Z AUTO 09005KT 1 3/4SM -SN BR OVC020 M04/M04 A2959 RMK AO2 P0000 T10391039 TSNO $

EXPIRED METARs :
  • 240227Z AUTO 08006KT 2SM -SN BR OVC016 M04/M04 A2958 RMK AO2 P0000 T10391039 TSNO $
  • 240215Z AUTO 07007KT 2 1/2SM -SN BR BKN012 OVC021 M04/M04 A2958 RMK AO2 P0000 T10391039 TSNO $
  • 240207Z AUTO 06006KT 1 3/4SM -SN BR BKN012 OVC023 M04/M04 A2957 RMK AO2 P0000 T10391039 TSNO $
  • 240153Z AUTO VRB06KT 1SM -SN BR FEW012 OVC021 M03/M04 A2957 RMK AO2 SLP020 P0000 T10331039 TSNO $
  • 240144Z AUTO 07005KT 1SM -SN BR OVC021 M03/M04 A2957 RMK AO2 P0000 T10331039 TSNO $
  • 240127Z AUTO VRB05KT 3/4SM -SN BR VV020 M03/M04 A2956 RMK AO2 P0000 T10331039 TSNO $
  • 240053Z AUTO 06006KT 1SM -SN BR BKN020 OVC027 M03/M04 A2955 RMK AO2 SLP014 P0000 T10331039 TSNO $
  • 240034Z AUTO 05006KT 1SM -SN BR SCT018 OVC025 M03/M04 A2955 RMK AO2 P0000 T10331039 TSNO $
  • 240023Z AUTO 04006KT 3/4SM -SN BR FEW019 OVC024 M03/M04 A2955 RMK AO2 P0000 T10331039 TSNO $
  • 232353Z AUTO 05005KT 1 1/4SM -SN BR OVC022 M03/M04 A2955 RMK AO2 SLP013 P0000 60000 T10331039 11022 21039 53008 TSNO $

TAF PAMC
Valid from the 24 at 00:00 until the 25 at 00:00 UTC


232332Z 2400/2424 VRB03KT 2SM -SN BR OVC018
FM240300 16002KT 1 1/2SM -SN BR OVC012
FM241700 22002KT 4SM -SN BR OVC015
FM242300 20002KT P6SM OVC015
PAZA FIR / North America



MET'MAP, your aeronautical weather chart ! - Copyright ORBIFLY December 2007 - Disclaimer

ORBIFLY MET'MAP TEAM :

Programming & Development : Alexandra Zaïnal
Concept & original design : Baudouin d'Aumeries
Assistance for programming : Marc-Olivier Méhu
Technical & hardware support : Manuel Goepfert

Contact : metmap@orbifly.com




SOURCES & CREDITS :

   NOAA       Earth
Advisory